createdAt,value
2023-05-05T00:01:33.184Z,2.55
2023-05-05T00:04:00.410Z,2.72
2023-05-05T00:06:28.690Z,2.60
2023-05-05T00:08:56.318Z,2.42
2023-05-05T00:11:23.323Z,2.38
2023-05-05T00:13:50.748Z,2.25
2023-05-05T00:16:17.644Z,2.40
2023-05-05T00:18:44.865Z,2.50
2023-05-05T00:21:11.823Z,2.47
2023-05-05T00:23:38.756Z,2.38
2023-05-05T00:26:05.805Z,2.22
2023-05-05T00:28:32.734Z,2.00
2023-05-05T00:30:59.707Z,2.20
2023-05-05T00:33:26.839Z,2.28
2023-05-05T00:35:53.825Z,2.10
2023-05-05T00:38:20.722Z,2.10
2023-05-05T00:40:47.913Z,2.55
2023-05-05T00:43:14.989Z,2.20
2023-05-05T00:45:44.280Z,2.33
2023-05-05T00:48:11.340Z,2.40
2023-05-05T00:50:38.579Z,2.20
2023-05-05T00:53:06.739Z,2.25
2023-05-05T00:55:34.745Z,2.28
2023-05-05T00:58:02.665Z,2.30
2023-05-05T01:00:30.072Z,2.42
2023-05-05T01:02:57.692Z,2.35
2023-05-05T01:05:25.028Z,2.40
2023-05-05T01:08:16.522Z,2.60
2023-05-05T01:10:52.531Z,2.55
2023-05-05T01:13:42.884Z,2.65
2023-05-05T01:16:17.605Z,2.90
2023-05-05T01:19:17.382Z,2.47
2023-05-05T01:21:47.250Z,2.45
2023-05-05T01:24:51.355Z,2.60
2023-05-05T01:27:38.428Z,3.20
2023-05-05T01:30:41.887Z,2.60
2023-05-05T01:33:09.819Z,2.60
2023-05-05T01:35:41.792Z,2.50
2023-05-05T01:38:23.115Z,2.45
2023-05-05T01:41:04.918Z,2.20
2023-05-05T01:43:33.230Z,2.50
2023-05-05T01:46:00.176Z,3.03
2023-05-05T01:48:27.193Z,2.97
2023-05-05T01:50:54.124Z,2.70
2023-05-05T01:53:23.221Z,3.10
2023-05-05T01:55:50.260Z,2.88
2023-05-05T01:58:17.242Z,2.95
2023-05-05T02:00:44.678Z,2.80
2023-05-05T02:03:12.606Z,2.60
2023-05-05T02:05:39.723Z,2.58
2023-05-05T02:08:06.753Z,2.80
2023-05-05T02:10:33.728Z,3.28
2023-05-05T02:13:02.118Z,2.90
2023-05-05T02:15:29.424Z,2.80
2023-05-05T02:17:56.618Z,3.10
2023-05-05T02:20:23.760Z,2.85
2023-05-05T02:22:50.923Z,2.63
2023-05-05T02:25:18.012Z,2.78
2023-05-05T02:27:46.545Z,2.53
2023-05-05T02:30:14.810Z,2.88
2023-05-05T02:33:06.316Z,2.90
2023-05-05T02:35:40.496Z,3.00
2023-05-05T02:38:13.814Z,3.00
2023-05-05T02:40:42.724Z,3.03
2023-05-05T02:43:14.386Z,2.70
2023-05-05T02:45:41.416Z,2.80
2023-05-05T02:48:10.631Z,2.75
2023-05-05T02:50:39.117Z,3.17
2023-05-05T02:53:14.565Z,2.97
2023-05-05T02:55:45.722Z,3.17
2023-05-05T03:00:59.326Z,2.95
2023-05-05T03:03:40.090Z,3.33
2023-05-05T03:06:14.012Z,3.60
2023-05-05T03:08:48.159Z,3.47
2023-05-05T03:11:21.795Z,3.17
2023-05-05T03:13:51.347Z,3.78
2023-05-05T03:16:21.624Z,4.43
2023-05-05T03:18:48.605Z,3.53
2023-05-05T03:21:15.783Z,3.90
2023-05-05T03:23:43.048Z,4.18
2023-05-05T03:26:18.725Z,3.92
2023-05-05T03:28:46.779Z,4.20
2023-05-05T03:31:25.067Z,4.40
2023-05-05T03:33:55.962Z,4.87
2023-05-05T03:36:29.268Z,4.43
2023-05-05T03:38:58.450Z,5.07
2023-05-05T03:41:27.761Z,5.10
2023-05-05T03:43:55.142Z,5.45
2023-05-05T03:46:22.175Z,5.55
2023-05-05T03:48:49.186Z,5.15
2023-05-05T03:51:16.459Z,5.45
2023-05-05T03:53:43.777Z,5.65
2023-05-05T03:56:11.182Z,5.43
2023-05-05T03:58:38.176Z,5.60
2023-05-05T04:01:05.258Z,5.05
2023-05-05T04:03:32.369Z,5.20
2023-05-05T04:06:00.008Z,5.43
2023-05-05T04:08:27.841Z,5.80
2023-05-05T04:10:54.847Z,5.40
2023-05-05T04:13:22.113Z,5.53
2023-05-05T04:15:49.285Z,5.53
2023-05-05T04:18:17.753Z,5.75
2023-05-05T04:20:44.820Z,5.93
2023-05-05T04:23:12.319Z,5.15
2023-05-05T04:25:40.353Z,5.80
2023-05-05T04:28:07.803Z,6.10
2023-05-05T04:30:34.762Z,6.32
2023-05-05T04:33:02.090Z,5.93
2023-05-05T04:35:29.764Z,5.70
2023-05-05T04:37:57.475Z,5.78
2023-05-05T04:40:26.251Z,5.72
2023-05-05T04:42:54.140Z,5.80
2023-05-05T04:45:21.653Z,5.63
2023-05-05T04:47:48.946Z,5.22
2023-05-05T04:50:16.616Z,5.55
2023-05-05T04:52:43.669Z,6.05
2023-05-05T04:55:11.656Z,5.45
2023-05-05T04:57:38.726Z,5.40
2023-05-05T05:00:06.712Z,5.13
2023-05-05T05:02:33.929Z,5.40
2023-05-05T05:05:01.080Z,5.20
2023-05-05T05:07:28.102Z,4.55
2023-05-05T05:09:55.157Z,5.35
2023-05-05T05:12:22.260Z,4.85
2023-05-05T05:14:50.495Z,5.22
2023-05-05T05:17:17.503Z,5.00
2023-05-05T05:19:44.411Z,4.60
2023-05-05T05:22:11.379Z,4.32
2023-05-05T05:24:40.935Z,4.63
2023-05-05T05:27:10.143Z,4.07
2023-05-05T05:29:39.165Z,4.25
2023-05-05T05:32:06.197Z,4.07
2023-05-05T05:34:33.388Z,4.20
2023-05-05T05:37:00.465Z,4.32
2023-05-05T05:39:27.841Z,4.07
2023-05-05T05:41:55.156Z,4.20
2023-05-05T05:44:22.294Z,4.05
2023-05-05T05:46:49.286Z,4.40
2023-05-05T05:49:16.928Z,4.28
2023-05-05T05:51:44.036Z,4.43
2023-05-05T05:54:10.962Z,4.40
2023-05-05T05:56:38.130Z,4.63
2023-05-05T05:59:08.067Z,4.13
2023-05-05T06:01:35.726Z,4.72
2023-05-05T06:04:03.652Z,4.47
2023-05-05T06:06:31.629Z,4.50
2023-05-05T06:08:58.812Z,5.00
2023-05-05T06:11:26.521Z,4.90
2023-05-05T06:13:53.536Z,4.85
2023-05-05T06:16:20.520Z,4.88
2023-05-05T06:18:48.272Z,5.20
2023-05-05T06:21:15.568Z,5.20
2023-05-05T06:23:42.688Z,5.28
2023-05-05T06:26:09.809Z,5.25
2023-05-05T06:28:36.793Z,5.13
2023-05-05T06:31:03.843Z,5.10
2023-05-05T06:33:30.822Z,5.20
2023-05-05T06:35:57.954Z,4.78
2023-05-05T06:38:25.101Z,5.53
2023-05-05T06:40:52.027Z,5.13
2023-05-05T06:43:18.948Z,4.97
2023-05-05T06:45:53.027Z,4.72
2023-05-05T06:48:20.255Z,4.65
2023-05-05T06:50:47.406Z,4.43
2023-05-05T06:53:14.321Z,4.25
2023-05-05T06:55:44.174Z,4.45
2023-05-05T06:58:11.957Z,4.60
2023-05-05T07:00:42.398Z,4.68
2023-05-05T07:03:09.405Z,4.22
2023-05-05T07:05:36.932Z,3.90
2023-05-05T07:08:04.001Z,3.53
2023-05-05T07:10:31.948Z,3.70
2023-05-05T07:12:59.204Z,3.63
2023-05-05T07:15:29.201Z,4.10
2023-05-05T07:17:57.268Z,3.45
2023-05-05T07:20:24.585Z,3.50
2023-05-05T07:22:51.618Z,3.50
2023-05-05T07:25:18.648Z,3.30
2023-05-05T07:27:45.664Z,3.00
2023-05-05T07:30:16.307Z,3.28
2023-05-05T07:32:43.506Z,3.28
2023-05-05T07:35:10.871Z,3.40
2023-05-05T07:37:37.774Z,3.10
2023-05-05T07:40:05.631Z,3.45
2023-05-05T07:42:33.215Z,2.75
2023-05-05T07:45:00.163Z,3.20
2023-05-05T07:47:27.481Z,3.00
2023-05-05T07:49:54.426Z,2.97
2023-05-05T07:52:30.101Z,2.83
2023-05-05T07:55:04.983Z,3.03
2023-05-05T07:57:31.889Z,2.45
2023-05-05T07:59:58.842Z,2.40
2023-05-05T08:02:25.927Z,2.55
2023-05-05T08:04:52.985Z,2.30
2023-05-05T08:07:20.082Z,2.38
2023-05-05T08:09:47.034Z,2.22
2023-05-05T08:12:15.247Z,1.90
2023-05-05T08:14:42.608Z,1.70
2023-05-05T08:17:09.511Z,1.60
2023-05-05T08:19:36.426Z,2.05
2023-05-05T08:22:03.383Z,1.70
2023-05-05T08:24:30.923Z,1.73
2023-05-05T08:26:58.014Z,2.05
2023-05-05T08:29:25.134Z,2.38
2023-05-05T08:31:52.575Z,2.30
2023-05-05T08:34:20.039Z,2.50
2023-05-05T08:36:49.060Z,1.95
2023-05-05T08:39:16.665Z,2.15
2023-05-05T08:41:43.650Z,2.40
2023-05-05T08:44:10.829Z,1.90
2023-05-05T08:46:37.919Z,1.88
2023-05-05T08:49:05.123Z,1.70
2023-05-05T08:51:35.912Z,1.90
2023-05-05T08:54:03.845Z,1.80
2023-05-05T08:56:36.811Z,1.80
2023-05-05T08:59:03.762Z,1.73
2023-05-05T09:01:31.457Z,2.13
2023-05-05T09:03:59.121Z,1.80
2023-05-05T09:06:27.405Z,1.70
2023-05-05T09:08:56.053Z,1.80
2023-05-05T09:11:24.446Z,1.70
2023-05-05T09:13:51.567Z,1.90
2023-05-05T09:16:18.508Z,1.80
2023-05-05T09:18:45.813Z,2.10
2023-05-05T09:21:25.024Z,2.00
2023-05-05T09:24:09.076Z,2.00
2023-05-05T09:26:37.954Z,1.92
2023-05-05T09:29:05.571Z,2.10
2023-05-05T09:31:33.349Z,1.90
2023-05-05T09:34:04.452Z,2.40
2023-05-05T09:36:45.599Z,2.38
2023-05-05T09:39:12.607Z,2.17
2023-05-05T09:41:40.376Z,2.85
2023-05-05T09:44:07.686Z,2.30
2023-05-05T09:46:34.794Z,2.28
2023-05-05T09:49:23.543Z,2.00
2023-05-05T09:51:51.641Z,2.05
2023-05-05T09:54:32.793Z,1.80
2023-05-05T09:56:59.726Z,1.85
2023-05-05T09:59:26.644Z,1.65
2023-05-05T10:01:53.883Z,1.67
2023-05-05T10:04:25.244Z,1.98
2023-05-05T10:06:52.238Z,1.55
2023-05-05T10:09:19.310Z,1.60
2023-05-05T10:11:47.318Z,1.80
2023-05-05T10:14:15.859Z,1.60
2023-05-05T10:16:49.440Z,2.10
2023-05-05T10:19:17.279Z,1.98
2023-05-05T10:21:50.644Z,1.75
2023-05-05T10:24:24.419Z,2.03
2023-05-05T10:26:51.401Z,1.80
2023-05-05T10:29:28.359Z,1.80
2023-05-05T10:31:55.343Z,1.73
2023-05-05T10:34:27.150Z,1.92
2023-05-05T10:36:55.190Z,2.10
2023-05-05T10:39:22.419Z,2.25
2023-05-05T10:41:49.690Z,2.00
2023-05-05T10:44:17.625Z,2.70
2023-05-05T10:46:44.906Z,2.00
2023-05-05T10:49:38.675Z,2.33
2023-05-05T10:52:14.572Z,2.40
2023-05-05T10:54:56.028Z,1.83
2023-05-05T10:57:25.078Z,2.10
2023-05-05T10:59:52.068Z,2.25
2023-05-05T11:02:29.504Z,1.70
2023-05-05T11:05:15.328Z,2.30
2023-05-05T11:07:42.809Z,1.88
2023-05-05T11:10:14.586Z,2.10
2023-05-05T11:13:04.891Z,1.70
2023-05-05T11:15:33.655Z,2.00
2023-05-05T11:18:02.655Z,2.00
2023-05-05T11:20:40.986Z,2.05
2023-05-05T11:23:08.138Z,1.85
2023-05-05T11:25:39.071Z,1.88
2023-05-05T11:28:07.152Z,1.77
2023-05-05T11:30:34.589Z,1.60
2023-05-05T11:33:24.176Z,1.70
2023-05-05T11:36:01.284Z,1.98
2023-05-05T11:38:53.717Z,1.90
2023-05-05T11:41:32.556Z,2.30
2023-05-05T11:44:32.216Z,1.77
2023-05-05T11:47:02.007Z,1.80
2023-05-05T11:49:30.023Z,1.65
2023-05-05T11:52:00.353Z,1.90
2023-05-05T11:54:27.389Z,1.88
2023-05-05T11:56:56.239Z,1.77
2023-05-05T11:59:23.193Z,1.50
2023-05-05T12:01:50.149Z,1.50
2023-05-05T12:04:48.627Z,1.80
2023-05-05T12:07:46.436Z,1.73
2023-05-05T12:10:53.713Z,1.42
2023-05-05T12:18:11.747Z,1.50
2023-05-05T12:20:48.224Z,1.83
2023-05-05T12:23:15.657Z,1.83
2023-05-05T12:25:42.855Z,1.70
2023-05-05T12:28:10.339Z,1.60
2023-05-05T12:30:37.631Z,1.65
2023-05-05T12:33:06.363Z,1.65
2023-05-05T12:35:33.638Z,1.77
2023-05-05T12:38:00.829Z,1.58
2023-05-05T12:40:49.078Z,1.60
2023-05-05T12:43:29.186Z,1.95
2023-05-05T12:46:03.755Z,1.80
2023-05-05T12:48:31.019Z,1.73
2023-05-05T12:51:14.947Z,2.55
2023-05-05T12:53:42.264Z,1.92
2023-05-05T12:56:38.748Z,1.88
2023-05-05T12:59:07.832Z,1.92
2023-05-05T13:01:35.896Z,1.70
2023-05-05T13:04:12.974Z,1.95
2023-05-05T13:06:41.423Z,2.17
2023-05-05T13:09:10.397Z,2.13
2023-05-05T13:11:38.144Z,1.70
2023-05-05T13:14:06.261Z,1.95
2023-05-05T13:16:34.016Z,1.80
2023-05-05T13:19:01.161Z,1.90
2023-05-05T13:21:28.289Z,1.90
2023-05-05T13:24:04.907Z,2.08
2023-05-05T13:26:39.561Z,1.98
2023-05-05T13:29:06.641Z,2.00
2023-05-05T13:31:33.921Z,2.15
2023-05-05T13:34:01.217Z,2.20
2023-05-05T13:36:28.241Z,2.30
2023-05-05T13:38:55.454Z,2.45
2023-05-05T13:41:22.515Z,2.30
2023-05-05T13:43:49.743Z,2.03
2023-05-05T13:46:19.983Z,1.88
2023-05-05T13:48:47.691Z,1.90
2023-05-05T13:51:16.421Z,1.95
2023-05-05T13:53:46.683Z,2.30
2023-05-05T13:56:14.487Z,2.10
2023-05-05T13:58:42.572Z,2.60
2023-05-05T14:01:10.024Z,1.98
2023-05-05T14:03:37.104Z,2.00
2023-05-05T14:06:04.173Z,2.40
2023-05-05T14:08:31.198Z,2.10
2023-05-05T14:10:58.160Z,2.00
2023-05-05T14:13:26.285Z,2.20
2023-05-05T14:15:53.937Z,2.25
2023-05-05T14:18:21.177Z,2.20
2023-05-05T14:20:48.124Z,2.00
2023-05-05T14:23:15.054Z,1.92
2023-05-05T14:25:41.989Z,2.13
2023-05-05T14:28:08.992Z,2.00
2023-05-05T14:30:35.946Z,2.13
2023-05-05T14:33:02.930Z,2.28
2023-05-05T14:35:31.385Z,1.95
2023-05-05T14:37:58.346Z,2.08
2023-05-05T14:40:25.245Z,1.70
2023-05-05T14:42:52.199Z,1.85
2023-05-05T14:45:19.392Z,2.13
2023-05-05T14:47:46.376Z,1.70
2023-05-05T14:50:14.234Z,1.88
2023-05-05T14:52:41.592Z,1.90
2023-05-05T14:55:09.374Z,2.13
2023-05-05T14:57:38.278Z,1.95
2023-05-05T15:00:08.248Z,2.33
2023-05-05T15:02:35.488Z,2.05
2023-05-05T15:05:02.449Z,2.00
2023-05-05T15:07:29.912Z,2.10
2023-05-05T15:09:56.819Z,2.30
2023-05-05T15:12:23.971Z,1.90
2023-05-05T15:14:51.034Z,2.20
2023-05-05T15:17:18.011Z,2.20
2023-05-05T15:19:45.017Z,2.03
2023-05-05T15:22:11.995Z,2.00
2023-05-05T15:24:39.018Z,2.15
2023-05-05T15:27:06.101Z,2.30
2023-05-05T15:29:33.205Z,1.95
2023-05-05T15:32:00.470Z,2.22
2023-05-05T15:34:27.739Z,2.13
2023-05-05T15:36:54.805Z,2.00
2023-05-05T15:39:21.769Z,2.50
2023-05-05T15:41:48.802Z,4.25
2023-05-05T15:44:16.052Z,2.40
2023-05-05T15:46:43.045Z,2.00
2023-05-05T15:49:12.780Z,2.13
2023-05-05T15:51:40.364Z,2.00
2023-05-05T15:54:07.781Z,2.28
2023-05-05T15:56:34.894Z,2.50
2023-05-05T15:59:03.360Z,1.95
2023-05-05T16:01:30.378Z,2.33
2023-05-05T16:03:58.055Z,2.10
2023-05-05T16:06:27.360Z,1.98
2023-05-05T16:08:56.114Z,2.15
2023-05-05T16:11:24.023Z,3.08
2023-05-05T16:13:51.054Z,2.90
2023-05-05T16:16:18.188Z,4.60
2023-05-05T16:18:45.337Z,2.20
2023-05-05T16:21:12.363Z,2.80
2023-05-05T16:23:39.431Z,2.40
2023-05-05T16:26:06.393Z,2.35
2023-05-05T16:28:34.391Z,2.30
2023-05-05T16:31:02.329Z,2.40
2023-05-05T16:33:29.761Z,2.03
2023-05-05T16:35:57.099Z,2.40
2023-05-05T16:38:24.098Z,2.53
2023-05-05T16:40:51.075Z,2.40
2023-05-05T16:43:19.636Z,2.38
2023-05-05T16:45:46.803Z,2.35
2023-05-05T16:48:14.765Z,2.03
2023-05-05T16:50:41.857Z,2.50
2023-05-05T16:53:10.085Z,2.55
2023-05-05T16:55:37.522Z,2.30
2023-05-05T16:58:04.696Z,2.30
2023-05-05T17:00:31.809Z,2.33
2023-05-05T17:02:58.945Z,2.65
2023-05-05T17:05:26.077Z,2.67
2023-05-05T17:07:53.199Z,2.60
2023-05-05T17:10:20.251Z,2.80
2023-05-05T17:12:47.303Z,2.90
2023-05-05T17:15:14.426Z,2.33
2023-05-05T17:17:43.000Z,2.38
2023-05-05T17:20:11.055Z,2.65
2023-05-05T17:22:38.108Z,2.30
2023-05-05T17:25:05.895Z,2.53
2023-05-05T17:27:33.127Z,2.67
2023-05-05T17:30:00.060Z,2.50
2023-05-05T17:32:27.317Z,2.55
2023-05-05T17:34:54.466Z,2.90
2023-05-05T17:37:21.533Z,2.45
2023-05-05T17:39:48.601Z,2.63
2023-05-05T17:42:18.692Z,2.80
2023-05-05T17:44:47.549Z,2.53
2023-05-05T17:47:14.687Z,3.28
2023-05-05T17:49:41.745Z,2.80
2023-05-05T17:52:08.697Z,3.03
2023-05-05T17:54:35.833Z,2.53
2023-05-05T17:57:02.910Z,2.70
2023-05-05T17:59:31.541Z,3.15
2023-05-05T18:01:58.485Z,2.80
2023-05-05T18:04:25.565Z,3.05
2023-05-05T18:06:55.711Z,3.13
2023-05-05T18:09:23.443Z,2.67
2023-05-05T18:11:53.773Z,3.40
2023-05-05T18:14:22.490Z,3.17
2023-05-05T18:16:52.205Z,3.22
2023-05-05T18:19:22.940Z,2.90
2023-05-05T18:21:51.716Z,3.83
2023-05-05T18:24:20.390Z,3.80
2023-05-05T18:26:51.443Z,3.80
2023-05-05T18:29:19.202Z,3.47
2023-05-05T18:31:49.645Z,2.88
2023-05-05T18:34:17.143Z,3.08
2023-05-05T18:36:44.707Z,3.10
2023-05-05T18:39:11.839Z,2.70
2023-05-05T18:41:40.073Z,2.97
2023-05-05T18:44:07.557Z,3.15
2023-05-05T18:46:34.624Z,2.80
2023-05-05T18:49:01.957Z,3.30
2023-05-05T18:51:29.153Z,3.80
2023-05-05T18:53:56.360Z,2.78
2023-05-05T18:56:23.401Z,2.95
2023-05-05T18:58:50.593Z,3.10
2023-05-05T19:01:17.916Z,3.00
2023-05-05T19:03:48.245Z,3.03
2023-05-05T19:06:15.949Z,3.08
2023-05-05T19:08:43.831Z,3.22
2023-05-05T19:11:11.163Z,2.97
2023-05-05T19:13:39.924Z,3.03
2023-05-05T19:16:07.779Z,3.30
2023-05-05T19:18:34.847Z,2.92
2023-05-05T19:21:02.203Z,3.28
2023-05-05T19:23:29.286Z,3.10
2023-05-05T19:25:56.575Z,3.08
2023-05-05T19:28:24.412Z,3.10
2023-05-05T19:30:52.287Z,2.75
2023-05-05T19:33:19.447Z,3.20
2023-05-05T19:35:46.565Z,3.03
2023-05-05T19:38:13.804Z,2.80
2023-05-05T19:40:43.873Z,3.38
2023-05-05T19:43:11.502Z,3.30
2023-05-05T19:45:38.717Z,2.95
2023-05-05T19:48:06.373Z,3.53
2023-05-05T19:50:33.523Z,3.28
2023-05-05T19:53:00.739Z,3.20
2023-05-05T19:55:27.754Z,3.10
2023-05-05T19:57:54.997Z,3.00
2023-05-05T20:00:22.079Z,3.45
2023-05-05T20:02:49.253Z,3.60
2023-05-05T20:05:17.618Z,3.60
2023-05-05T20:07:46.481Z,3.50
2023-05-05T20:10:13.969Z,3.70
2023-05-05T20:12:47.642Z,3.55
2023-05-05T20:15:19.050Z,3.58
2023-05-05T20:17:49.589Z,3.70
2023-05-05T20:20:19.167Z,4.18
2023-05-05T20:22:48.040Z,3.42
2023-05-05T20:25:18.461Z,3.58
2023-05-05T20:27:45.969Z,3.92
2023-05-05T20:30:13.565Z,3.63
2023-05-05T20:32:40.957Z,3.60
2023-05-05T20:35:08.755Z,3.78
2023-05-05T20:37:36.366Z,3.90
2023-05-05T20:40:03.841Z,3.58
2023-05-05T20:42:30.901Z,4.00
2023-05-05T20:44:58.019Z,4.10
2023-05-05T20:47:25.448Z,3.78
2023-05-05T20:49:52.684Z,3.80
2023-05-05T20:52:19.879Z,4.72
2023-05-05T20:54:46.796Z,4.20
2023-05-05T20:57:13.897Z,3.60
2023-05-05T20:59:40.790Z,3.80
2023-05-05T21:02:08.063Z,4.03
2023-05-05T21:04:35.249Z,3.95
2023-05-05T21:07:03.322Z,3.80
2023-05-05T21:09:31.520Z,3.83
2023-05-05T21:11:58.566Z,4.30
2023-05-05T21:14:25.565Z,3.92
2023-05-05T21:16:52.772Z,3.60
2023-05-05T21:19:20.068Z,3.80
2023-05-05T21:21:47.688Z,4.28
2023-05-05T21:24:14.659Z,3.90
2023-05-05T21:26:45.161Z,3.33
2023-05-05T21:29:12.205Z,4.05
2023-05-05T21:31:39.129Z,3.40
2023-05-05T21:34:06.062Z,3.88
2023-05-05T21:36:34.110Z,3.70
2023-05-05T21:39:01.227Z,3.75
2023-05-05T21:41:28.334Z,3.70
2023-05-05T21:43:55.736Z,3.20
2023-05-05T21:46:22.936Z,3.35
2023-05-05T21:48:50.125Z,3.90
2023-05-05T21:51:17.667Z,3.42
2023-05-05T21:53:45.003Z,3.75
2023-05-05T21:56:12.044Z,4.47
2023-05-05T21:58:39.033Z,5.22
2023-05-05T22:01:06.102Z,5.82
2023-05-05T22:03:34.432Z,5.60
2023-05-05T22:06:01.471Z,4.85
2023-05-05T22:08:28.508Z,4.40
2023-05-05T22:10:55.550Z,3.60
2023-05-05T22:13:22.677Z,3.47
2023-05-05T22:15:49.815Z,3.45
2023-05-05T22:18:17.181Z,3.30
2023-05-05T22:20:44.273Z,3.65
2023-05-05T22:23:11.260Z,3.72
2023-05-05T22:25:38.334Z,3.67
2023-05-05T22:28:05.642Z,3.78
2023-05-05T22:30:32.673Z,3.95
2023-05-05T22:32:59.778Z,4.00
2023-05-05T22:35:27.168Z,3.70
2023-05-05T22:37:54.293Z,3.40
2023-05-05T22:40:21.415Z,4.70
2023-05-05T22:42:48.330Z,3.85
2023-05-05T22:45:15.513Z,3.60
2023-05-05T22:47:42.629Z,3.63
2023-05-05T22:50:10.086Z,3.50
2023-05-05T22:52:37.252Z,4.35
2023-05-05T22:55:04.541Z,3.95
2023-05-05T22:57:31.518Z,4.13
2023-05-05T22:59:58.429Z,3.63
2023-05-05T23:02:26.780Z,3.55
2023-05-05T23:04:54.009Z,3.97
2023-05-05T23:07:21.036Z,4.00
2023-05-05T23:09:48.131Z,4.65
2023-05-05T23:12:15.233Z,4.32
2023-05-05T23:14:42.266Z,4.32
2023-05-05T23:17:09.489Z,4.32
2023-05-05T23:19:36.787Z,4.25
2023-05-05T23:22:03.912Z,4.60
2023-05-05T23:24:31.048Z,4.13
2023-05-05T23:27:04.170Z,4.22
2023-05-05T23:29:31.141Z,3.75
2023-05-05T23:31:58.351Z,3.63
2023-05-05T23:34:26.209Z,4.13
2023-05-05T23:36:53.408Z,4.00
2023-05-05T23:39:20.330Z,3.72
2023-05-05T23:41:47.207Z,3.22
2023-05-05T23:44:14.174Z,3.72
2023-05-05T23:46:41.197Z,3.75
2023-05-05T23:49:08.646Z,3.63
2023-05-05T23:51:35.825Z,3.47
2023-05-05T23:54:03.294Z,3.40
2023-05-05T23:56:30.565Z,3.20
2023-05-05T23:58:57.519Z,3.90
